createdAt,value
2024-05-09T00:01:47.895Z,102177.34
2024-05-09T00:04:36.609Z,102180.16
2024-05-09T00:07:25.042Z,102171.56
2024-05-09T00:10:22.361Z,102174.97
2024-05-09T00:13:20.452Z,102169.34
2024-05-09T00:16:09.790Z,102166.91
2024-05-09T00:18:58.530Z,102171.50
2024-05-09T00:21:47.120Z,102177.38
2024-05-09T00:24:35.694Z,102172.97
2024-05-09T00:27:24.186Z,102162.19
2024-05-09T00:30:24.173Z,102168.41
2024-05-09T00:33:20.534Z,102162.69
2024-05-09T00:36:10.067Z,102166.56
2024-05-09T00:38:58.559Z,102161.28
2024-05-09T00:41:47.213Z,102164.13
2024-05-09T00:44:35.603Z,102159.88
2024-05-09T00:47:27.463Z,102159.47
2024-05-09T00:50:22.737Z,102154.00
2024-05-09T00:53:20.093Z,102158.72
2024-05-09T00:56:10.803Z,102155.28
2024-05-09T00:58:59.510Z,102160.66
2024-05-09T01:01:48.944Z,102156.72
2024-05-09T01:04:40.456Z,102156.66
2024-05-09T01:07:29.203Z,102164.16
2024-05-09T01:10:24.154Z,102166.72
2024-05-09T01:13:20.099Z,102171.41
2024-05-09T01:16:09.133Z,102166.84
2024-05-09T01:18:58.126Z,102166.72
2024-05-09T01:21:49.402Z,102168.50
2024-05-09T01:24:40.919Z,102170.31
2024-05-09T01:27:29.484Z,102172.22
2024-05-09T01:30:24.295Z,102165.25
2024-05-09T01:33:16.534Z,102166.06
2024-05-09T01:36:05.374Z,102164.06
2024-05-09T01:38:54.088Z,102160.66
2024-05-09T01:41:45.382Z,102166.00
2024-05-09T01:44:34.163Z,102163.44
2024-05-09T01:47:22.796Z,102157.72
2024-05-09T01:50:16.311Z,102160.97
2024-05-09T01:53:05.292Z,102164.94
2024-05-09T01:55:53.850Z,102163.38
2024-05-09T01:58:46.356Z,102138.00
2024-05-09T02:01:55.580Z,101885.19
2024-05-09T02:04:43.719Z,102158.88
2024-05-09T02:07:32.348Z,102164.94
2024-05-09T02:10:26.355Z,102163.78
2024-05-09T02:13:20.614Z,102169.41
2024-05-09T02:16:15.094Z,102163.16
2024-05-09T02:19:03.664Z,102159.72
2024-05-09T02:21:52.173Z,102168.78
2024-05-09T02:24:40.765Z,102168.81
2024-05-09T02:27:29.248Z,102159.06
2024-05-09T02:30:25.900Z,102160.00
2024-05-09T02:33:26.953Z,102154.91
2024-05-09T02:36:15.812Z,102150.34
2024-05-09T02:39:01.557Z,102152.25
2024-05-09T02:41:49.986Z,102152.28
2024-05-09T02:44:35.896Z,102148.94
2024-05-09T02:47:24.771Z,102135.84
2024-05-09T02:50:16.219Z,102142.88
2024-05-09T02:53:08.934Z,102008.00
2024-05-09T02:55:55.873Z,102146.63
2024-05-09T02:58:44.419Z,102140.59
2024-05-09T03:01:30.365Z,102142.75
2024-05-09T03:04:26.080Z,102107.00
2024-05-09T03:07:19.002Z,102156.00
2024-05-09T03:10:18.252Z,102149.97
2024-05-09T03:13:09.109Z,102149.94
2024-05-09T03:15:57.966Z,102154.91
2024-05-09T03:18:46.887Z,102156.13
2024-05-09T03:21:37.898Z,102155.25
2024-05-09T03:24:32.642Z,102156.16
2024-05-09T03:27:21.063Z,102161.28
2024-05-09T03:30:09.685Z,102156.94
2024-05-09T03:32:58.240Z,102166.81
2024-05-09T03:35:44.409Z,102147.44
2024-05-09T03:38:32.758Z,102155.47
2024-05-09T03:41:24.736Z,102162.47
2024-05-09T03:44:13.317Z,102113.38
2024-05-09T03:46:59.365Z,102157.53
2024-05-09T03:49:47.761Z,102155.91
2024-05-09T03:52:36.220Z,102166.31
2024-05-09T03:55:22.160Z,102159.06
2024-05-09T03:58:14.773Z,102170.63
2024-05-09T04:01:00.691Z,102165.31
2024-05-09T04:03:49.368Z,102157.06
2024-05-09T04:06:37.698Z,102163.34
2024-05-09T04:09:23.645Z,102158.91
2024-05-09T04:12:12.332Z,102158.16
2024-05-09T04:15:00.740Z,102160.84
2024-05-09T04:17:51.839Z,102148.09
2024-05-09T04:20:40.371Z,102155.72
2024-05-09T04:23:30.115Z,102153.69
2024-05-09T04:26:16.121Z,102165.06
2024-05-09T04:29:04.735Z,102166.09
2024-05-09T04:31:55.884Z,102169.25
2024-05-09T04:34:41.906Z,102169.94
2024-05-09T04:37:30.669Z,102167.75
2024-05-09T04:40:24.344Z,102167.31
2024-05-09T04:43:21.464Z,102171.06
2024-05-09T04:46:07.425Z,102174.91
2024-05-09T04:48:58.863Z,102154.63
2024-05-09T04:51:44.683Z,102172.94
2024-05-09T04:54:36.436Z,102182.41
2024-05-09T04:57:22.614Z,102180.56
2024-05-09T05:00:14.943Z,102175.88
2024-05-09T05:03:14.204Z,102171.72
2024-05-09T05:06:04.484Z,102172.84
2024-05-09T05:08:52.950Z,102176.31
2024-05-09T05:11:39.027Z,102173.22
2024-05-09T05:14:28.097Z,102177.59
2024-05-09T05:17:16.764Z,102170.28
2024-05-09T05:20:03.425Z,102179.38
2024-05-09T05:22:57.909Z,102174.63
2024-05-09T05:25:47.944Z,102170.16
2024-05-09T05:28:43.551Z,102172.84
2024-05-09T05:31:38.371Z,102171.97
2024-05-09T05:34:27.355Z,102167.81
2024-05-09T05:37:14.086Z,102171.13
2024-05-09T05:40:09.425Z,102167.06
2024-05-09T05:42:58.117Z,102171.09
2024-05-09T05:45:46.852Z,102174.03
2024-05-09T05:48:32.999Z,102173.41
2024-05-09T05:51:21.537Z,102176.03
2024-05-09T05:54:07.498Z,102177.38
2024-05-09T05:57:00.056Z,102150.75
2024-05-09T05:59:46.107Z,102173.69
2024-05-09T06:02:36.292Z,102172.13
2024-05-09T06:05:23.422Z,102154.53
2024-05-09T06:08:12.869Z,102160.66
2024-05-09T06:10:58.716Z,102167.47
2024-05-09T06:13:49.817Z,102166.97
2024-05-09T06:16:35.803Z,102177.16
2024-05-09T06:19:24.662Z,102159.41
2024-05-09T06:22:11.315Z,102158.25
2024-05-09T06:24:59.523Z,102155.84
2024-05-09T06:27:45.408Z,102157.06
2024-05-09T06:30:41.248Z,102158.38
2024-05-09T06:33:30.035Z,102160.13
2024-05-09T06:36:18.781Z,102156.25
2024-05-09T06:39:04.924Z,102153.22
2024-05-09T06:41:53.462Z,102151.56
2024-05-09T06:44:39.313Z,102154.19
2024-05-09T06:47:30.705Z,102149.03
2024-05-09T06:50:23.511Z,102143.88
2024-05-09T06:53:17.486Z,102145.78
2024-05-09T06:56:03.896Z,102146.97
2024-05-09T06:58:54.547Z,102148.00
2024-05-09T07:01:40.839Z,102146.03
2024-05-09T07:04:32.117Z,102135.81
2024-05-09T07:07:17.862Z,102131.28
2024-05-09T07:10:09.967Z,102144.38
2024-05-09T07:12:57.969Z,102134.06
2024-05-09T07:15:46.633Z,102139.44
2024-05-09T07:18:32.371Z,102138.91
2024-05-09T07:21:23.769Z,102130.09
2024-05-09T07:24:15.298Z,102127.41
2024-05-09T07:27:04.610Z,102130.50
2024-05-09T07:29:50.296Z,102131.28
2024-05-09T07:32:39.136Z,102145.31
2024-05-09T07:35:25.461Z,102136.78
2024-05-09T07:38:18.251Z,102133.19
2024-05-09T07:41:04.752Z,102129.63
2024-05-09T07:43:53.481Z,102131.47
2024-05-09T07:47:47.626Z,102128.16
2024-05-09T07:51:32.582Z,102130.63
2024-05-09T07:55:47.825Z,102134.44
2024-05-09T07:58:36.192Z,102132.72
2024-05-09T08:01:22.435Z,102129.84
2024-05-09T08:04:11.325Z,102123.63
2024-05-09T08:06:57.238Z,102123.91
2024-05-09T08:09:45.992Z,102120.91
2024-05-09T08:12:34.591Z,102117.28
2024-05-09T08:15:23.025Z,102119.03
2024-05-09T08:18:09.819Z,102123.00
2024-05-09T08:20:58.859Z,102120.56
2024-05-09T08:23:47.483Z,102110.56
2024-05-09T08:26:33.294Z,102088.13
2024-05-09T08:29:24.490Z,102110.13
2024-05-09T08:32:13.738Z,102116.03
2024-05-09T08:35:02.351Z,102107.00
2024-05-09T08:37:50.048Z,102112.41
2024-05-09T08:40:39.273Z,102101.38
2024-05-09T08:43:26.973Z,102101.31
2024-05-09T08:46:19.080Z,102095.97
2024-05-09T08:49:05.374Z,102092.53
2024-05-09T08:51:54.110Z,102095.09
2024-05-09T08:54:41.047Z,102097.06
2024-05-09T08:57:30.467Z,102093.69
2024-05-09T09:03:11.820Z,102088.50
2024-05-09T09:06:05.642Z,102093.72
2024-05-09T09:08:54.922Z,102095.94
2024-05-09T09:11:40.714Z,102061.59
2024-05-09T09:14:29.241Z,102096.44
2024-05-09T09:17:15.742Z,102092.06
2024-05-09T09:20:13.985Z,102085.84
2024-05-09T09:23:02.529Z,102087.38
2024-05-09T09:25:52.155Z,102087.28
2024-05-09T09:28:38.488Z,102084.34
2024-05-09T09:31:27.331Z,102086.97
2024-05-09T09:34:13.335Z,102085.22
2024-05-09T09:37:09.954Z,102048.13
2024-05-09T09:39:58.058Z,102093.63
2024-05-09T09:42:49.309Z,102089.19
2024-05-09T09:45:36.701Z,102089.44
2024-05-09T09:48:26.338Z,102087.69
2024-05-09T09:51:14.039Z,102087.34
2024-05-09T09:54:06.727Z,102082.84
2024-05-09T09:56:55.880Z,102081.50
2024-05-09T09:59:46.999Z,102090.41
2024-05-09T10:02:35.389Z,102084.81
2024-05-09T10:05:23.653Z,102084.25
2024-05-09T10:08:14.542Z,102081.59
2024-05-09T10:11:04.465Z,102079.66
2024-05-09T10:13:55.114Z,102085.34
2024-05-09T10:16:44.185Z,102074.47
2024-05-09T10:19:34.400Z,102073.84
2024-05-09T10:22:27.369Z,102068.91
2024-05-09T10:25:16.157Z,102065.31
2024-05-09T10:28:05.627Z,102066.47
2024-05-09T10:31:04.639Z,102053.25
2024-05-09T10:33:52.678Z,102063.97
2024-05-09T10:36:45.588Z,102045.88
2024-05-09T10:39:38.412Z,102059.88
2024-05-09T10:42:24.969Z,102061.91
2024-05-09T10:45:19.113Z,102055.31
2024-05-09T10:48:06.183Z,102054.53
2024-05-09T10:50:54.775Z,102054.69
2024-05-09T10:53:42.307Z,102051.09
2024-05-09T10:56:30.963Z,102044.81
2024-05-09T10:59:16.857Z,102041.69
2024-05-09T11:02:09.606Z,102038.81
2024-05-09T11:04:56.161Z,102039.81
2024-05-09T11:07:44.756Z,102043.94
2024-05-09T11:10:34.072Z,102034.19
2024-05-09T11:13:30.244Z,102029.00
2024-05-09T11:16:21.042Z,102020.38
2024-05-09T11:19:15.489Z,102029.00
2024-05-09T11:22:02.306Z,102027.25
2024-05-09T11:24:52.747Z,102022.66
2024-05-09T11:27:41.151Z,102017.03
2024-05-09T11:30:34.872Z,102015.91
2024-05-09T11:33:21.144Z,102015.03
2024-05-09T11:36:13.328Z,102011.44
2024-05-09T11:38:59.025Z,102007.94
2024-05-09T11:41:47.654Z,102002.25
2024-05-09T11:44:33.960Z,102007.19
2024-05-09T11:47:22.938Z,102000.97
2024-05-09T11:50:13.119Z,101998.22
2024-05-09T11:53:10.501Z,102000.16
2024-05-09T11:55:56.244Z,101992.34
2024-05-09T11:58:44.872Z,101995.09
2024-05-09T12:01:30.973Z,101985.94
2024-05-09T12:04:19.623Z,101982.16
2024-05-09T12:07:05.399Z,101986.63
2024-05-09T12:09:56.814Z,101991.63
2024-05-09T12:12:42.748Z,101983.19
2024-05-09T12:15:31.216Z,101979.13
2024-05-09T12:18:17.192Z,101978.41
2024-05-09T12:21:06.677Z,101967.06
2024-05-09T12:23:55.303Z,101976.69
2024-05-09T12:26:43.963Z,101977.97
2024-05-09T12:29:36.199Z,101976.66
2024-05-09T12:32:24.865Z,101974.09
2024-05-09T12:35:14.141Z,101968.28
2024-05-09T12:38:00.190Z,101966.34
2024-05-09T12:40:48.749Z,101954.72
2024-05-09T12:43:37.259Z,101963.00
2024-05-09T12:46:25.959Z,101947.63
2024-05-09T12:49:13.811Z,101943.56
2024-05-09T12:52:04.100Z,101943.63
2024-05-09T12:54:50.253Z,101933.00
2024-05-09T12:57:38.916Z,101927.81
2024-05-09T13:00:31.793Z,101932.72
2024-05-09T13:03:22.811Z,101923.88
2024-05-09T13:06:09.219Z,101920.94
2024-05-09T13:08:58.020Z,101908.63
2024-05-09T13:11:44.108Z,101913.81
2024-05-09T13:14:32.445Z,101896.47
2024-05-09T13:17:21.759Z,101905.84
2024-05-09T13:20:18.914Z,101903.28
2024-05-09T13:23:12.085Z,101896.09
2024-05-09T13:26:00.904Z,101890.50
2024-05-09T13:28:46.518Z,101886.81
2024-05-09T13:31:34.875Z,101886.38
2024-05-09T13:34:23.383Z,101884.44
2024-05-09T13:37:12.675Z,101879.19
2024-05-09T13:39:59.159Z,101880.75
2024-05-09T13:42:48.841Z,101879.00
2024-05-09T13:45:35.553Z,101838.53
2024-05-09T13:48:24.028Z,101876.75
2024-05-09T13:51:12.604Z,101866.81
2024-05-09T13:54:02.170Z,101860.88
2024-05-09T13:56:50.603Z,101853.06
2024-05-09T13:59:43.238Z,101857.44
2024-05-09T14:02:39.551Z,101834.84
2024-05-09T14:05:29.462Z,101859.16
2024-05-09T14:08:20.622Z,101818.88
2024-05-09T14:11:11.643Z,101850.19
2024-05-09T14:13:58.627Z,101847.78
2024-05-09T14:16:48.725Z,101848.06
2024-05-09T14:19:35.982Z,101848.53
2024-05-09T14:22:27.182Z,101839.09
2024-05-09T14:25:37.827Z,101840.22
2024-05-09T14:28:30.828Z,101833.78
2024-05-09T14:31:17.834Z,101829.31
2024-05-09T14:34:08.524Z,101835.59
2024-05-09T14:36:56.084Z,101822.72
2024-05-09T14:39:47.096Z,101820.13
2024-05-09T14:42:42.007Z,101818.59
2024-05-09T14:45:31.845Z,101814.75
2024-05-09T14:48:20.528Z,101798.16
2024-05-09T14:51:10.390Z,101814.41
2024-05-09T14:53:57.547Z,101808.50
2024-05-09T14:56:55.584Z,101802.06
2024-05-09T14:59:46.842Z,101797.22
2024-05-09T15:02:38.626Z,101798.22
2024-05-09T15:05:26.915Z,101795.41
2024-05-09T15:08:18.633Z,101789.06
2024-05-09T15:11:08.403Z,101786.84
2024-05-09T15:13:58.175Z,101791.72
2024-05-09T15:16:49.290Z,101778.22
2024-05-09T15:19:48.329Z,101789.09
2024-05-09T15:22:41.545Z,101783.25
2024-05-09T15:25:34.513Z,101780.25
2024-05-09T15:28:33.839Z,101780.50
2024-05-09T15:31:42.025Z,101778.16
2024-05-09T15:34:32.295Z,101775.22
2024-05-09T15:37:30.654Z,101772.03
2024-05-09T15:40:26.395Z,101764.16
2024-05-09T15:43:25.759Z,101770.50
2024-05-09T15:46:17.126Z,101773.38
2024-05-09T15:49:04.931Z,101774.47
2024-05-09T15:52:02.656Z,101761.44
2024-05-09T15:54:49.672Z,101761.03
2024-05-09T15:57:46.801Z,101760.00
2024-05-09T16:00:38.519Z,101762.47
2024-05-09T16:03:31.543Z,101756.56
2024-05-09T16:06:17.324Z,101757.13
2024-05-09T16:09:14.884Z,101759.56
2024-05-09T16:12:08.164Z,101753.25
2024-05-09T16:15:00.944Z,101752.81
2024-05-09T16:17:55.521Z,101754.97
2024-05-09T16:20:50.423Z,101751.31
2024-05-09T16:23:44.048Z,101752.13
2024-05-09T16:26:37.262Z,101752.56
2024-05-09T16:29:28.468Z,101756.38
2024-05-09T16:32:19.200Z,101752.97
2024-05-09T16:35:07.085Z,101757.28
2024-05-09T16:37:57.890Z,101764.13
2024-05-09T16:40:44.568Z,101753.91
2024-05-09T16:43:36.158Z,101758.91
2024-05-09T16:46:22.327Z,101755.22
2024-05-09T16:49:11.178Z,101762.38
2024-05-09T16:52:00.275Z,101764.97
2024-05-09T16:54:46.285Z,101755.97
2024-05-09T16:57:34.956Z,101759.81
2024-05-09T17:00:34.904Z,101765.47
2024-05-09T17:03:29.280Z,101753.28
2024-05-09T17:06:15.441Z,101756.06
2024-05-09T17:09:08.617Z,101756.16
2024-05-09T17:12:00.638Z,101754.47
2024-05-09T17:14:49.327Z,101759.53
2024-05-09T17:17:41.033Z,101754.88
2024-05-09T17:20:34.408Z,101748.78
2024-05-09T17:23:22.696Z,101750.81
2024-05-09T17:26:11.192Z,101743.16
2024-05-09T17:28:57.345Z,101737.41
2024-05-09T17:31:45.909Z,101743.75
2024-05-09T17:34:34.754Z,101743.75
2024-05-09T17:37:23.677Z,101741.84
2024-05-09T17:40:16.902Z,101744.66
2024-05-09T17:43:06.928Z,101743.44
2024-05-09T17:45:54.509Z,101748.25
2024-05-09T17:48:43.056Z,101744.97
2024-05-09T17:51:32.244Z,101745.84
2024-05-09T17:54:20.754Z,101743.13
2024-05-09T17:57:06.841Z,101747.44
2024-05-09T17:59:55.913Z,101746.19
2024-05-09T18:02:43.011Z,101750.84
2024-05-09T18:05:31.989Z,101752.84
2024-05-09T18:08:20.777Z,101752.50
2024-05-09T18:11:09.766Z,101752.63
2024-05-09T18:13:56.504Z,101754.38
2024-05-09T18:16:45.116Z,101758.03
2024-05-09T18:19:31.036Z,101760.94
2024-05-09T18:22:19.981Z,101760.00
2024-05-09T18:25:09.246Z,101758.72
2024-05-09T18:27:58.276Z,101757.09
2024-05-09T18:30:44.392Z,101761.47
2024-05-09T18:33:33.204Z,101769.31
2024-05-09T18:36:19.581Z,101763.31
2024-05-09T18:39:08.974Z,101762.50
2024-05-09T18:42:00.870Z,101765.16
2024-05-09T18:44:46.692Z,101777.84
2024-05-09T18:47:35.643Z,101780.63
2024-05-09T18:50:31.681Z,101778.91
2024-05-09T18:53:24.503Z,101789.38
2024-05-09T18:56:10.653Z,101774.16
2024-05-09T18:59:02.160Z,101784.28
2024-05-09T19:01:48.284Z,101791.50
2024-05-09T19:04:37.364Z,101790.63
2024-05-09T19:07:23.847Z,101792.75
2024-05-09T19:10:21.797Z,101802.28
2024-05-09T19:13:12.280Z,101812.47
2024-05-09T19:16:05.037Z,101807.78
2024-05-09T19:18:51.614Z,101812.84
2024-05-09T19:21:42.849Z,101807.94
2024-05-09T19:24:29.323Z,101813.97
2024-05-09T19:27:18.107Z,101814.78
2024-05-09T19:30:05.714Z,101819.53
2024-05-09T19:33:00.927Z,101811.56
2024-05-09T19:35:46.846Z,101813.00
2024-05-09T19:38:35.609Z,101808.16
2024-05-09T19:41:22.151Z,101814.84
2024-05-09T19:44:10.453Z,101825.28
2024-05-09T19:46:56.333Z,101815.88
2024-05-09T19:49:47.607Z,101819.75
2024-05-09T19:52:33.644Z,101818.38
2024-05-09T19:55:22.043Z,101819.28
2024-05-09T19:58:09.148Z,101822.94
2024-05-09T20:00:57.963Z,101830.63
2024-05-09T20:03:43.961Z,101827.53
2024-05-09T20:06:35.120Z,101845.00
2024-05-09T20:09:21.239Z,101843.91
2024-05-09T20:12:10.095Z,101843.09
2024-05-09T20:14:55.970Z,101842.72
2024-05-09T20:17:44.741Z,101839.84
2024-05-09T20:20:37.559Z,101830.06
2024-05-09T20:23:32.640Z,101836.75
2024-05-09T20:26:18.477Z,101838.56
2024-05-09T20:29:07.204Z,101839.69
2024-05-09T20:31:53.295Z,101837.72
2024-05-09T20:34:42.563Z,101836.59
2024-05-09T20:37:28.660Z,101824.59
2024-05-09T20:40:28.263Z,101823.81
2024-05-09T20:43:18.402Z,101831.16
2024-05-09T20:46:07.055Z,101832.84
2024-05-09T20:48:53.452Z,101830.59
2024-05-09T20:51:42.363Z,101828.06
2024-05-09T20:54:28.327Z,101830.94
2024-05-09T20:57:22.286Z,101825.41
2024-05-09T21:00:15.031Z,101835.41
2024-05-09T21:03:07.847Z,101832.53
2024-05-09T21:05:54.216Z,101828.94
2024-05-09T21:08:42.672Z,101656.44
2024-05-09T21:11:28.808Z,101823.19
2024-05-09T21:14:20.070Z,101828.16
2024-05-09T21:17:05.917Z,101824.75
2024-05-09T21:19:54.556Z,101827.91
2024-05-09T21:22:40.570Z,101832.41
2024-05-09T21:25:29.252Z,101827.13
2024-05-09T21:28:15.332Z,101832.78
2024-05-09T21:31:06.670Z,101827.59
2024-05-09T21:33:53.275Z,101833.28
2024-05-09T21:36:41.681Z,101825.72
2024-05-09T21:39:27.813Z,101822.44
2024-05-09T21:42:16.344Z,101834.50
2024-05-09T21:45:02.518Z,101823.84
2024-05-09T21:47:53.964Z,101825.94
2024-05-09T21:50:42.004Z,101826.03
2024-05-09T21:53:30.743Z,101828.81
2024-05-09T21:56:16.725Z,101821.97
2024-05-09T21:59:05.493Z,101820.56
2024-05-09T22:01:51.561Z,101822.41
2024-05-09T22:04:42.809Z,101821.16
2024-05-09T22:07:28.883Z,101820.19
2024-05-09T22:10:25.695Z,101814.00
2024-05-09T22:13:19.007Z,101815.50
2024-05-09T22:16:08.424Z,101815.13
2024-05-09T22:18:54.774Z,101815.81
2024-05-09T22:21:46.070Z,101825.56
2024-05-09T22:24:32.116Z,101826.16
2024-05-09T22:27:20.730Z,101813.38
2024-05-09T22:30:11.767Z,101815.13
2024-05-09T22:33:04.080Z,101789.78
2024-05-09T22:35:51.366Z,101822.44
2024-05-09T22:38:53.816Z,101822.66
2024-05-09T22:41:42.955Z,101821.41
2024-05-09T22:44:35.089Z,101823.16
2024-05-09T22:47:24.120Z,101822.28
2024-05-09T22:50:18.663Z,101827.00
2024-05-09T22:53:14.218Z,101825.34
2024-05-09T22:56:08.288Z,101826.78
2024-05-09T22:58:58.844Z,101819.13
2024-05-09T23:01:47.288Z,101821.31
2024-05-09T23:04:36.076Z,101822.25
2024-05-09T23:07:22.174Z,101773.91
2024-05-09T23:10:17.202Z,101823.41
2024-05-09T23:13:10.447Z,101824.44
2024-05-09T23:15:59.074Z,101832.34
2024-05-09T23:18:45.248Z,101820.38
2024-05-09T23:21:33.803Z,101818.63
2024-05-09T23:24:19.815Z,101831.25
2024-05-09T23:27:08.575Z,101821.19
2024-05-09T23:30:00.223Z,101815.88
2024-05-09T23:32:46.147Z,101819.47
2024-05-09T23:35:34.799Z,101817.91
2024-05-09T23:38:23.766Z,101820.66
2024-05-09T23:41:13.023Z,101820.00
2024-05-09T23:43:59.056Z,101812.97
2024-05-09T23:46:50.265Z,101814.06
2024-05-09T23:49:36.192Z,101810.06
2024-05-09T23:52:27.329Z,101806.16
2024-05-09T23:55:13.816Z,101808.47
2024-05-09T23:58:02.546Z,101806.06
